createdAt,value
2018-08-11T00:02:33.665Z,59.17
2018-08-11T00:05:36.957Z,59.27
2018-08-11T00:08:40.255Z,59.13
2018-08-11T00:11:44.043Z,59.14
2018-08-11T00:14:47.598Z,59.01
2018-08-11T00:17:50.831Z,59.46
2018-08-11T00:20:54.060Z,60.51
2018-08-11T00:23:57.341Z,60.42
2018-08-11T00:27:00.651Z,60.43
2018-08-11T00:30:05.050Z,60.33
2018-08-11T00:33:08.380Z,60.63
2018-08-11T00:36:11.706Z,60.81
2018-08-11T00:39:14.976Z,60.65
2018-08-11T00:42:21.653Z,60.47
2018-08-11T00:45:25.312Z,60.73
2018-08-11T00:48:28.519Z,61.01
2018-08-11T00:51:31.816Z,61.82
2018-08-11T00:54:35.164Z,61.03
2018-08-11T00:57:38.748Z,60.77
2018-08-11T01:00:42.031Z,60.59
2018-08-11T01:03:45.984Z,60.95
2018-08-11T01:06:49.287Z,61.33
2018-08-11T01:09:52.560Z,62.02
2018-08-11T01:12:55.834Z,60.53
2018-08-11T01:15:59.079Z,61.63
2018-08-11T01:19:02.447Z,61.58
2018-08-11T01:22:05.727Z,61.00
2018-08-11T01:25:09.745Z,61.67
2018-08-11T01:28:13.027Z,61.24
2018-08-11T01:31:16.919Z,61.12
2018-08-11T01:34:20.210Z,60.54
2018-08-11T01:37:23.452Z,59.43
2018-08-11T01:40:26.783Z,60.24
2018-08-11T01:43:30.032Z,60.18
2018-08-11T01:46:33.361Z,59.63
2018-08-11T01:49:36.654Z,59.59
2018-08-11T01:52:41.158Z,59.53
2018-08-11T01:55:44.921Z,59.83
2018-08-11T01:58:48.227Z,59.34
2018-08-11T02:01:51.563Z,59.13
2018-08-11T02:04:54.876Z,59.39
2018-08-11T02:07:58.177Z,59.43
2018-08-11T02:11:01.459Z,58.64
2018-08-11T02:14:04.802Z,59.20
2018-08-11T02:17:08.070Z,59.13
2018-08-11T02:20:13.338Z,59.32
2018-08-11T02:23:16.697Z,59.27
2018-08-11T02:26:19.996Z,59.21
2018-08-11T02:29:23.266Z,58.33
2018-08-11T02:32:26.503Z,58.70
2018-08-11T02:35:29.802Z,58.72
2018-08-11T02:38:33.095Z,58.80
2018-08-11T02:41:36.440Z,58.69
2018-08-11T02:44:39.591Z,59.60
2018-08-11T02:47:42.891Z,59.88
2018-08-11T02:50:47.268Z,61.00
2018-08-11T02:53:50.688Z,61.57
2018-08-11T02:56:53.987Z,62.16
2018-08-11T02:59:57.172Z,61.98
2018-08-11T03:03:00.530Z,61.24
2018-08-11T03:06:04.103Z,62.48
2018-08-11T03:09:08.228Z,62.12
2018-08-11T03:12:11.633Z,62.07
2018-08-11T03:15:17.022Z,62.03
2018-08-11T03:18:20.270Z,61.64
2018-08-11T03:21:23.560Z,61.94
2018-08-11T03:24:27.213Z,62.37
2018-08-11T03:27:30.467Z,63.22
2018-08-11T03:30:33.986Z,62.83
2018-08-11T03:33:37.236Z,63.02
2018-08-11T03:36:40.541Z,61.78
2018-08-11T03:39:44.159Z,61.67
2018-08-11T03:42:47.443Z,61.26
2018-08-11T03:45:50.732Z,61.69
2018-08-11T03:48:54.035Z,62.04
2018-08-11T03:51:57.381Z,60.87
2018-08-11T03:55:00.616Z,61.34
2018-08-11T03:58:03.818Z,61.06
2018-08-11T04:01:07.158Z,60.70
2018-08-11T04:04:10.432Z,60.47
2018-08-11T04:07:14.200Z,59.63
2018-08-11T04:10:17.418Z,60.27
2018-08-11T04:13:20.622Z,59.69
2018-08-11T04:16:23.945Z,59.95
2018-08-11T04:19:27.250Z,60.05
2018-08-11T04:22:30.535Z,60.01
2018-08-11T04:25:33.851Z,60.40
2018-08-11T04:28:37.141Z,60.12
2018-08-11T04:31:40.380Z,60.82
2018-08-11T04:34:44.198Z,60.88
2018-08-11T04:37:47.444Z,60.99
2018-08-11T04:40:50.739Z,60.81
2018-08-11T04:43:54.039Z,61.03
2018-08-11T04:46:57.295Z,60.70
2018-08-11T04:50:00.499Z,60.92
2018-08-11T04:53:03.808Z,60.66
2018-08-11T04:56:07.303Z,60.67
2018-08-11T04:59:10.500Z,59.82
2018-08-11T05:02:14.356Z,59.74
2018-08-11T05:05:18.132Z,59.54
2018-08-11T05:08:21.299Z,60.16
2018-08-11T05:11:24.735Z,59.06
2018-08-11T05:14:28.053Z,58.87
2018-08-11T05:17:31.286Z,58.35
2018-08-11T05:20:34.642Z,57.77
2018-08-11T05:23:37.896Z,57.72
2018-08-11T05:26:41.223Z,57.51
2018-08-11T05:29:45.075Z,57.14
2018-08-11T05:32:48.323Z,58.16
2018-08-11T05:35:51.528Z,58.08
2018-08-11T05:38:54.850Z,57.02
2018-08-11T05:41:58.148Z,57.65
2018-08-11T05:45:01.341Z,57.46
2018-08-11T05:48:04.612Z,57.32
2018-08-11T05:51:08.082Z,57.48
2018-08-11T05:54:11.430Z,56.99
2018-08-11T05:57:14.675Z,55.16
2018-08-11T06:00:17.859Z,54.36
2018-08-11T06:03:21.184Z,52.91
2018-08-11T06:06:24.553Z,52.38
2018-08-11T06:09:27.773Z,51.53
2018-08-11T06:12:31.078Z,51.64
2018-08-11T06:15:34.200Z,51.60
2018-08-11T06:18:37.456Z,51.52
2018-08-11T06:21:40.783Z,51.73
2018-08-11T06:24:44.022Z,52.19
2018-08-11T06:27:47.196Z,51.73
2018-08-11T06:30:50.359Z,52.26
2018-08-11T06:33:53.484Z,51.78
2018-08-11T06:36:56.780Z,51.28
2018-08-11T06:40:00.794Z,51.08
2018-08-11T06:43:04.021Z,51.63
2018-08-11T06:46:07.228Z,50.85
2018-08-11T06:49:10.501Z,50.52
2018-08-11T06:52:13.880Z,50.00
2018-08-11T06:55:17.185Z,50.12
2018-08-11T06:58:20.469Z,49.99
2018-08-11T07:01:23.694Z,49.42
2018-08-11T07:04:26.911Z,48.42
2018-08-11T07:07:30.768Z,48.69
2018-08-11T07:10:33.943Z,47.96
2018-08-11T07:13:37.196Z,47.73
2018-08-11T07:16:40.468Z,47.72
2018-08-11T07:19:43.651Z,46.85
2018-08-11T07:22:46.852Z,46.20
2018-08-11T07:25:50.011Z,44.87
2018-08-11T07:28:53.236Z,44.78
2018-08-11T07:31:56.511Z,44.53
2018-08-11T07:35:00.664Z,45.27
2018-08-11T07:38:03.904Z,45.19
2018-08-11T07:41:07.125Z,45.72
2018-08-11T07:44:10.320Z,46.41
2018-08-11T07:47:13.618Z,45.84
2018-08-11T07:50:16.941Z,45.30
2018-08-11T07:53:20.312Z,46.08
2018-08-11T07:56:23.599Z,46.22
2018-08-11T07:59:26.912Z,45.61
2018-08-11T08:02:30.709Z,45.60
2018-08-11T08:05:33.999Z,45.54
2018-08-11T08:08:37.179Z,45.78
2018-08-11T08:11:40.759Z,45.81
2018-08-11T08:14:43.995Z,45.84
2018-08-11T08:17:47.179Z,44.33
2018-08-11T08:20:50.498Z,43.68
2018-08-11T08:23:53.616Z,44.35
2018-08-11T08:26:56.891Z,43.79
2018-08-11T08:30:00.109Z,43.15
2018-08-11T08:33:03.386Z,42.90
2018-08-11T08:36:06.600Z,42.50
2018-08-11T08:39:11.400Z,42.41
2018-08-11T08:42:14.591Z,42.58
2018-08-11T08:45:18.501Z,43.27
2018-08-11T08:48:21.691Z,42.85
2018-08-11T08:51:24.956Z,42.09
2018-08-11T08:54:28.112Z,42.39
2018-08-11T08:57:31.289Z,42.78
2018-08-11T09:00:36.170Z,43.35
2018-08-11T09:03:39.387Z,43.01
2018-08-11T09:06:42.598Z,43.09
2018-08-11T09:09:45.977Z,43.36
2018-08-11T09:12:49.211Z,42.98
2018-08-11T09:15:54.507Z,42.49
2018-08-11T09:18:57.993Z,41.81
2018-08-11T09:22:01.275Z,41.34
2018-08-11T09:25:05.387Z,41.56
2018-08-11T09:28:08.630Z,42.31
2018-08-11T09:31:12.066Z,41.74
2018-08-11T09:34:15.355Z,42.28
2018-08-11T09:37:18.579Z,41.68
2018-08-11T09:40:21.875Z,41.50
2018-08-11T09:43:25.172Z,40.43
2018-08-11T09:46:28.478Z,40.12
2018-08-11T09:49:31.770Z,40.83
2018-08-11T09:52:35.365Z,40.06
2018-08-11T09:55:38.961Z,39.73
2018-08-11T10:01:13.854Z,38.58
2018-08-11T10:04:17.130Z,38.83
2018-08-11T10:10:49.116Z,40.02
2018-08-11T10:13:52.519Z,40.05
2018-08-11T10:16:55.852Z,40.48
2018-08-11T10:19:59.035Z,39.83
2018-08-11T10:23:02.351Z,39.91
2018-08-11T10:26:05.728Z,39.13
2018-08-11T10:29:09.004Z,37.97
2018-08-11T10:32:12.336Z,39.29
2018-08-11T10:35:15.579Z,39.89
2018-08-11T10:38:18.916Z,40.60
2018-08-11T10:41:22.167Z,40.36
2018-08-11T10:44:25.513Z,40.11
2018-08-11T10:47:28.814Z,40.15
2018-08-11T10:50:32.828Z,40.03
2018-08-11T10:53:36.155Z,40.34
2018-08-11T10:56:39.385Z,39.25
2018-08-11T10:59:42.720Z,39.26
2018-08-11T11:02:46.991Z,38.06
2018-08-11T11:05:50.319Z,37.89
2018-08-11T11:08:54.641Z,37.14
2018-08-11T11:11:57.832Z,36.85
2018-08-11T11:15:01.166Z,36.94
2018-08-11T11:18:05.499Z,38.17
2018-08-11T11:21:08.788Z,37.99
2018-08-11T11:24:12.252Z,38.60
2018-08-11T11:27:15.655Z,38.78
2018-08-11T11:30:18.983Z,38.46
2018-08-11T11:33:22.272Z,37.15
2018-08-11T11:36:25.678Z,35.84
2018-08-11T11:39:29.004Z,35.95
2018-08-11T11:42:32.378Z,35.78
2018-08-11T11:45:35.642Z,36.12
2018-08-11T11:48:38.971Z,35.37
2018-08-11T11:51:42.250Z,34.16
2018-08-11T11:54:45.547Z,34.23
2018-08-11T11:57:48.823Z,33.51
2018-08-11T12:00:52.159Z,32.54
2018-08-11T12:03:55.406Z,31.86
2018-08-11T12:06:58.711Z,32.02
2018-08-11T12:10:02.040Z,31.54
2018-08-11T12:13:05.669Z,31.71
2018-08-11T12:16:08.801Z,32.20
2018-08-11T12:19:12.114Z,32.39
2018-08-11T12:22:15.294Z,31.65
2018-08-11T12:25:18.619Z,32.51
2018-08-11T12:28:21.953Z,31.73
2018-08-11T12:31:25.199Z,31.28
2018-08-11T12:34:29.681Z,31.99
2018-08-11T12:37:32.933Z,30.87
2018-08-11T12:40:36.287Z,31.20
2018-08-11T12:43:39.503Z,31.17
2018-08-11T12:46:42.769Z,31.30
2018-08-11T12:49:46.174Z,32.09
2018-08-11T12:52:49.438Z,30.90
2018-08-11T12:55:52.654Z,31.50
2018-08-11T12:58:56.150Z,31.89
2018-08-11T13:02:00.481Z,31.91
2018-08-11T13:05:04.718Z,31.48
2018-08-11T13:08:08.998Z,31.15
2018-08-11T13:11:12.527Z,29.77
2018-08-11T13:14:15.812Z,30.29
2018-08-11T13:17:19.093Z,29.19
2018-08-11T13:20:22.366Z,29.58
2018-08-11T13:23:25.675Z,29.22
2018-08-11T13:26:29.028Z,29.48
2018-08-11T13:29:32.914Z,28.70
2018-08-11T13:32:36.192Z,27.77
2018-08-11T13:35:40.063Z,27.64
2018-08-11T13:38:43.373Z,27.13
2018-08-11T13:41:48.964Z,26.71
2018-08-11T13:44:52.163Z,27.03
2018-08-11T13:47:55.423Z,27.44
2018-08-11T13:50:58.703Z,27.98
2018-08-11T13:54:02.255Z,27.91
2018-08-11T13:57:05.683Z,28.41
2018-08-11T14:00:10.046Z,29.19
2018-08-11T14:03:13.255Z,28.59
2018-08-11T14:06:16.573Z,27.40
2018-08-11T14:09:20.362Z,27.88
2018-08-11T14:12:23.578Z,26.95
2018-08-11T14:15:26.882Z,26.76
2018-08-11T14:18:30.207Z,26.53
2018-08-11T14:21:33.468Z,27.08
2018-08-11T14:24:36.804Z,25.92
2018-08-11T14:27:40.069Z,25.94
2018-08-11T14:30:43.348Z,26.71
2018-08-11T14:33:46.681Z,26.60
2018-08-11T14:36:50.662Z,26.47
2018-08-11T14:39:53.971Z,26.94
2018-08-11T14:42:57.295Z,26.17
2018-08-11T14:46:00.722Z,25.91
2018-08-11T14:49:04.304Z,25.35
2018-08-11T14:52:07.579Z,25.72
2018-08-11T14:55:10.839Z,25.69
2018-08-11T14:58:14.654Z,25.47
2018-08-11T15:01:18.814Z,25.60
2018-08-11T15:04:22.463Z,25.43
2018-08-11T15:07:25.855Z,24.53
2018-08-11T15:10:29.188Z,25.30
2018-08-11T15:13:32.559Z,25.53
2018-08-11T15:16:36.311Z,25.65
2018-08-11T15:19:39.596Z,25.14
2018-08-11T15:22:43.752Z,24.96
2018-08-11T15:25:47.039Z,25.65
2018-08-11T15:28:50.291Z,25.22
2018-08-11T15:31:53.616Z,24.97
2018-08-11T15:34:56.900Z,24.43
2018-08-11T15:38:00.198Z,23.97
2018-08-11T15:41:03.483Z,23.73
2018-08-11T15:44:07.054Z,23.90
2018-08-11T15:47:10.515Z,24.09
2018-08-11T15:50:14.796Z,24.24
2018-08-11T15:53:18.093Z,24.41
2018-08-11T15:56:22.486Z,24.73
2018-08-11T15:59:25.807Z,24.86
2018-08-11T16:02:29.053Z,24.67
2018-08-11T16:05:32.359Z,24.71
2018-08-11T16:08:35.673Z,25.17
2018-08-11T16:11:38.965Z,25.79
2018-08-11T16:14:42.318Z,25.44
2018-08-11T16:17:46.895Z,25.40
2018-08-11T16:20:51.402Z,24.47
2018-08-11T16:23:54.696Z,24.58
2018-08-11T16:26:58.023Z,24.62
2018-08-11T16:30:01.159Z,24.51
2018-08-11T16:33:04.416Z,24.72
2018-08-11T16:36:07.782Z,24.64
2018-08-11T16:39:11.115Z,24.93
2018-08-11T16:42:14.499Z,24.71
2018-08-11T16:45:17.777Z,24.60
2018-08-11T16:48:21.955Z,24.83
2018-08-11T16:51:25.267Z,24.97
2018-08-11T16:54:28.698Z,24.94
2018-08-11T16:57:31.995Z,25.22
2018-08-11T17:00:35.136Z,25.37
2018-08-11T17:03:38.381Z,24.63
2018-08-11T17:06:42.379Z,24.63
2018-08-11T17:09:46.434Z,24.84
2018-08-11T17:12:49.817Z,25.10
2018-08-11T17:15:53.113Z,25.74
2018-08-11T17:18:56.398Z,25.53
2018-08-11T17:21:59.803Z,25.37
2018-08-11T17:25:03.181Z,25.07
2018-08-11T17:28:06.425Z,25.73
2018-08-11T17:31:09.721Z,25.93
2018-08-11T17:34:12.995Z,26.13
2018-08-11T17:37:17.209Z,26.49
2018-08-11T17:40:20.515Z,26.46
2018-08-11T17:43:23.808Z,26.55
2018-08-11T17:46:27.203Z,26.98
2018-08-11T17:49:30.561Z,27.65
2018-08-11T17:52:33.873Z,27.50
2018-08-11T17:55:37.115Z,28.06
2018-08-11T17:58:47.288Z,28.08
2018-08-11T18:01:50.659Z,28.53
2018-08-11T18:04:53.984Z,28.93
2018-08-11T18:07:57.252Z,28.90
2018-08-11T18:11:00.438Z,29.09
2018-08-11T18:14:03.891Z,29.00
2018-08-11T18:17:07.327Z,29.08
2018-08-11T18:20:10.664Z,29.42
2018-08-11T18:23:13.953Z,29.64
2018-08-11T18:26:17.177Z,29.84
2018-08-11T18:29:20.439Z,29.49
2018-08-11T18:32:23.574Z,29.66
2018-08-11T18:35:27.771Z,29.75
2018-08-11T18:38:31.172Z,30.51
2018-08-11T18:41:34.459Z,30.91
2018-08-11T18:44:37.756Z,30.80
2018-08-11T18:47:42.160Z,31.25
2018-08-11T18:50:45.453Z,31.39
2018-08-11T18:53:48.791Z,31.50
2018-08-11T18:56:52.176Z,31.75
2018-08-11T18:59:55.577Z,31.90
2018-08-11T19:02:58.860Z,32.23
2018-08-11T19:06:01.994Z,32.42
2018-08-11T19:09:09.861Z,32.77
2018-08-11T19:12:14.085Z,33.32
2018-08-11T19:15:17.831Z,33.87
2018-08-11T19:18:21.134Z,34.26
2018-08-11T19:21:24.363Z,34.47
2018-08-11T19:24:27.705Z,35.58
2018-08-11T19:27:31.536Z,35.81
2018-08-11T19:30:34.780Z,35.52
2018-08-11T19:33:38.154Z,35.59
2018-08-11T19:36:41.639Z,35.80
2018-08-11T19:39:45.012Z,35.97
2018-08-11T19:42:48.303Z,36.00
2018-08-11T19:45:51.683Z,36.45
2018-08-11T19:48:54.988Z,37.57
2018-08-11T19:51:58.299Z,37.62
2018-08-11T19:55:01.689Z,37.87
2018-08-11T19:58:04.914Z,38.80
2018-08-11T20:01:09.039Z,38.82
2018-08-11T20:04:14.348Z,38.65
2018-08-11T20:07:17.679Z,39.05
2018-08-11T20:10:20.965Z,39.21
2018-08-11T20:13:24.341Z,39.29
2018-08-11T20:16:27.564Z,39.61
2018-08-11T20:19:30.957Z,39.75
2018-08-11T20:22:34.528Z,40.45
2018-08-11T20:25:37.970Z,40.68
2018-08-11T20:28:42.036Z,39.95
2018-08-11T20:31:45.349Z,40.98
2018-08-11T20:34:48.629Z,41.47
2018-08-11T20:37:52.076Z,41.65
2018-08-11T20:40:55.692Z,41.11
2018-08-11T20:43:59.010Z,41.73
2018-08-11T20:47:02.342Z,42.38
2018-08-11T20:50:06.335Z,42.75
2018-08-11T20:53:10.119Z,43.12
2018-08-11T20:56:13.589Z,43.36
2018-08-11T20:59:16.943Z,43.29
2018-08-11T21:02:20.144Z,43.84
2018-08-11T21:05:23.712Z,44.15
2018-08-11T21:08:27.019Z,44.46
2018-08-11T21:11:30.283Z,45.02
2018-08-11T21:14:33.672Z,45.33
2018-08-11T21:17:39.507Z,45.68
2018-08-11T21:20:42.719Z,45.88
2018-08-11T21:23:46.186Z,46.29
2018-08-11T21:26:49.678Z,46.84
2018-08-11T21:29:53.216Z,47.26
2018-08-11T21:32:56.542Z,47.42
2018-08-11T21:35:59.855Z,47.98
2018-08-11T21:39:03.263Z,48.41
2018-08-11T21:42:06.753Z,48.34
2018-08-11T21:45:10.359Z,48.78
2018-08-11T21:48:13.625Z,48.20
2018-08-11T21:51:16.935Z,47.14
2018-08-11T21:54:20.216Z,46.42
2018-08-11T21:57:23.394Z,46.22
2018-08-11T22:00:29.414Z,47.35
2018-08-11T22:03:32.775Z,47.62
2018-08-11T22:06:35.965Z,48.82
2018-08-11T22:09:40.039Z,49.19
2018-08-11T22:12:43.312Z,49.77
2018-08-11T22:15:46.691Z,49.42
2018-08-11T22:18:49.994Z,49.43
2018-08-11T22:21:53.298Z,49.80
2018-08-11T22:24:56.590Z,49.78
2018-08-11T22:27:59.918Z,50.23
2018-08-11T22:31:03.129Z,48.25
2018-08-11T22:34:07.495Z,49.80
2018-08-11T22:37:12.318Z,49.33
2018-08-11T22:40:15.804Z,49.67
2018-08-11T22:43:19.449Z,49.55
2018-08-11T22:46:22.729Z,50.97
2018-08-11T22:49:26.021Z,50.10
2018-08-11T22:52:29.227Z,50.41
2018-08-11T22:55:32.495Z,50.73
2018-08-11T22:58:35.783Z,50.97
2018-08-11T23:01:40.270Z,51.17
2018-08-11T23:04:44.790Z,52.07
2018-08-11T23:07:48.041Z,52.61
2018-08-11T23:10:51.353Z,52.90
2018-08-11T23:13:55.198Z,53.94
2018-08-11T23:16:58.447Z,54.74
2018-08-11T23:20:01.688Z,55.13
2018-08-11T23:23:05.031Z,54.31
2018-08-11T23:26:08.251Z,53.18
2018-08-11T23:29:11.794Z,52.72
2018-08-11T23:32:15.036Z,52.10
2018-08-11T23:35:18.252Z,50.89
2018-08-11T23:38:21.526Z,51.70
2018-08-11T23:41:25.021Z,50.92
2018-08-11T23:44:28.230Z,50.29
2018-08-11T23:47:31.871Z,50.84
2018-08-11T23:50:35.154Z,51.27
2018-08-11T23:53:38.379Z,50.97
2018-08-11T23:56:41.847Z,51.05
2018-08-11T23:59:45.195Z,50.55
